sensor_id;sensor_type;location;lat;lon;timestamp;pressure;altitude;pressure_sealevel;temperature;humidity
20909;BME280;10614;53.198;6.570;2023-04-29T00:01:39;101379.47;;;9.10;100.00
20909;BME280;10614;53.198;6.570;2023-04-29T00:03:42;101376.84;;;9.10;100.00
20909;BME280;10614;53.198;6.570;2023-04-29T00:05:43;101389.13;;;9.09;100.00
20909;BME280;10614;53.198;6.570;2023-04-29T00:07:45;101383.88;;;9.08;100.00
20909;BME280;10614;53.198;6.570;2023-04-29T00:09:46;101388.25;;;9.09;100.00
20909;BME280;10614;53.198;6.570;2023-04-29T00:11:49;101390.06;;;9.07;100.00
20909;BME280;10614;53.198;6.570;2023-04-29T00:13:50;101389.31;;;9.02;100.00
20909;BME280;10614;53.198;6.570;2023-04-29T00:15:52;101388.47;;;9.01;100.00
20909;BME280;10614;53.198;6.570;2023-04-29T00:17:54;101393.72;;;9.01;100.00
20909;BME280;10614;53.198;6.570;2023-04-29T00:19:57;101389.31;;;9.02;100.00
20909;BME280;10614;53.198;6.570;2023-04-29T00:21:58;101388.50;;;9.00;100.00
20909;BME280;10614;53.198;6.570;2023-04-29T00:24:00;101392.91;;;8.98;100.00
20909;BME280;10614;53.198;6.570;2023-04-29T00:26:02;101399.00;;;9.00;100.00
20909;BME280;10614;53.198;6.570;2023-04-29T00:28:03;101405.97;;;9.01;100.00
20909;BME280;10614;53.198;6.570;2023-04-29T00:30:05;101404.28;;;8.98;100.00
20909;BME280;10614;53.198;6.570;2023-04-29T00:32:07;101399.03;;;8.98;100.00
20909;BME280;10614;53.198;6.570;2023-04-29T00:34:09;101400.81;;;8.96;100.00
20909;BME280;10614;53.198;6.570;2023-04-29T00:36:12;101404.34;;;8.97;100.00
20909;BME280;10614;53.198;6.570;2023-04-29T00:38:14;101406.97;;;8.97;100.00
20909;BME280;10614;53.198;6.570;2023-04-29T00:40:15;101410.44;;;8.97;100.00
20909;BME280;10614;53.198;6.570;2023-04-29T00:42:17;101415.69;;;8.97;100.00
20909;BME280;10614;53.198;6.570;2023-04-29T00:44:18;101411.31;;;8.96;100.00
20909;BME280;10614;53.198;6.570;2023-04-29T00:46:20;101407.84;;;8.96;100.00
20909;BME280;10614;53.198;6.570;2023-04-29T00:48:22;101420.09;;;8.95;100.00
20909;BME280;10614;53.198;6.570;2023-04-29T00:50:23;101416.66;;;8.93;100.00
20909;BME280;10614;53.198;6.570;2023-04-29T00:52:26;101420.19;;;8.92;100.00
20909;BME280;10614;53.198;6.570;2023-04-29T00:54:30;101428.94;;;8.91;100.00
20909;BME280;10614;53.198;6.570;2023-04-29T00:56:32;101428.13;;;8.89;100.00
20909;BME280;10614;53.198;6.570;2023-04-29T00:58:35;101429.03;;;8.88;100.00
20909;BME280;10614;53.198;6.570;2023-04-29T01:00:38;101435.16;;;8.87;100.00
20909;BME280;10614;53.198;6.570;2023-04-29T01:02:43;101437.78;;;8.87;100.00
20909;BME280;10614;53.198;6.570;2023-04-29T01:04:45;101440.38;;;8.88;100.00
20909;BME280;10614;53.198;6.570;2023-04-29T01:06:48;101443.00;;;8.88;100.00
20909;BME280;10614;53.198;6.570;2023-04-29T01:09:01;101452.69;;;8.86;100.00
20909;BME280;10614;53.198;6.570;2023-04-29T01:11:07;101451.81;;;8.87;100.00
20909;BME280;10614;53.198;6.570;2023-04-29T01:13:13;101460.53;;;8.88;100.00
20909;BME280;10614;53.198;6.570;2023-04-29T01:15:20;101458.78;;;8.87;100.00
20909;BME280;10614;53.198;6.570;2023-04-29T01:17:23;101454.44;;;8.86;100.00
20909;BME280;10614;53.198;6.570;2023-04-29T01:19:29;101463.19;;;8.86;100.00
20909;BME280;10614;53.198;6.570;2023-04-29T01:21:35;101458.84;;;8.85;100.00
20909;BME280;10614;53.198;6.570;2023-04-29T01:23:46;101462.41;;;8.83;100.00
20909;BME280;10614;53.198;6.570;2023-04-29T01:25:52;101460.63;;;8.85;100.00
20909;BME280;10614;53.198;6.570;2023-04-29T01:27:56;101475.47;;;8.84;100.00
20909;BME280;10614;53.198;6.570;2023-04-29T01:30:06;101469.34;;;8.85;100.00
20909;BME280;10614;53.198;6.570;2023-04-29T01:32:11;101474.53;;;8.87;100.00
20909;BME280;10614;53.198;6.570;2023-04-29T01:34:16;101469.34;;;8.85;100.00
20909;BME280;10614;53.198;6.570;2023-04-29T01:36:22;101476.38;;;8.85;100.00
20909;BME280;10614;53.198;6.570;2023-04-29T01:38:29;101478.09;;;8.84;100.00
20909;BME280;10614;53.198;6.570;2023-04-29T01:40:36;101480.72;;;8.84;100.00
20909;BME280;10614;53.198;6.570;2023-04-29T01:42:39;101480.78;;;8.83;100.00
20909;BME280;10614;53.198;6.570;2023-04-29T01:44:44;101472.94;;;8.81;100.00
20909;BME280;10614;53.198;6.570;2023-04-29T01:46:50;101480.81;;;8.81;100.00
20909;BME280;10614;53.198;6.570;2023-04-29T01:48:53;101489.53;;;8.82;100.00
20909;BME280;10614;53.198;6.570;2023-04-29T01:50:54;101479.97;;;8.79;100.00
20909;BME280;10614;53.198;6.570;2023-04-29T01:52:56;101489.66;;;8.77;100.00
20909;BME280;10614;53.198;6.570;2023-04-29T01:54:57;101496.75;;;8.74;100.00
20909;BME280;10614;53.198;6.570;2023-04-29T01:57:00;101500.25;;;8.73;100.00
20909;BME280;10614;53.198;6.570;2023-04-29T01:59:02;101498.53;;;8.72;100.00
20909;BME280;10614;53.198;6.570;2023-04-29T02:01:04;101504.72;;;8.68;100.00
20909;BME280;10614;53.198;6.570;2023-04-29T02:03:06;101503.03;;;8.65;100.00
20909;BME280;10614;53.198;6.570;2023-04-29T02:05:07;101517.94;;;8.63;100.00
20909;BME280;10614;53.198;6.570;2023-04-29T02:07:10;101513.66;;;8.59;100.00
20909;BME280;10614;53.198;6.570;2023-04-29T02:09:12;101517.25;;;8.55;100.00
20909;BME280;10614;53.198;6.570;2023-04-29T02:11:13;101519.16;;;8.48;100.00
20909;BME280;10614;53.198;6.570;2023-04-29T02:13:16;101531.44;;;8.44;100.00
20909;BME280;10614;53.198;6.570;2023-04-29T02:15:18;101535.84;;;8.42;100.00
20909;BME280;10614;53.198;6.570;2023-04-29T02:17:20;101536.81;;;8.38;100.00
20909;BME280;10614;53.198;6.570;2023-04-29T02:19:21;101543.84;;;8.36;100.00
20909;BME280;10614;53.198;6.570;2023-04-29T02:21:23;101546.47;;;8.36;100.00
20909;BME280;10614;53.198;6.570;2023-04-29T02:23:24;101551.72;;;8.36;100.00
20909;BME280;10614;53.198;6.570;2023-04-29T02:25:26;101550.88;;;8.33;100.00
20909;BME280;10614;53.198;6.570;2023-04-29T02:27:27;101557.00;;;8.33;100.00
20909;BME280;10614;53.198;6.570;2023-04-29T02:29:30;101563.16;;;8.32;100.00
20909;BME280;10614;53.198;6.570;2023-04-29T02:31:32;101558.81;;;8.30;100.00
20909;BME280;10614;53.198;6.570;2023-04-29T02:33:34;101562.28;;;8.32;100.00
20909;BME280;10614;53.198;6.570;2023-04-29T02:35:35;101565.78;;;8.31;100.00
20909;BME280;10614;53.198;6.570;2023-04-29T02:37:37;101574.59;;;8.28;100.00
20909;BME280;10614;53.198;6.570;2023-04-29T02:39:38;101570.25;;;8.27;100.00
20909;BME280;10614;53.198;6.570;2023-04-29T02:41:40;101576.38;;;8.26;100.00
20909;BME280;10614;53.198;6.570;2023-04-29T02:43:42;101587.75;;;8.25;100.00
20909;BME280;10614;53.198;6.570;2023-04-29T02:45:46;101579.06;;;8.23;100.00
20909;BME280;10614;53.198;6.570;2023-04-29T02:47:47;101582.59;;;8.22;100.00
20909;BME280;10614;53.198;6.570;2023-04-29T02:49:49;101589.53;;;8.23;100.00
20909;BME280;10614;53.198;6.570;2023-04-29T02:51:50;101590.41;;;8.23;100.00
20909;BME280;10614;53.198;6.570;2023-04-29T02:53:52;101589.53;;;8.23;100.00
20909;BME280;10614;53.198;6.570;2023-04-29T02:55:53;101594.81;;;8.21;100.00
20909;BME280;10614;53.198;6.570;2023-04-29T02:57:56;101602.66;;;8.23;100.00
20909;BME280;10614;53.198;6.570;2023-04-29T02:59:57;101601.78;;;8.22;100.00
20909;BME280;10614;53.198;6.570;2023-04-29T03:02:01;101607.03;;;8.22;100.00
20909;BME280;10614;53.198;6.570;2023-04-29T03:04:03;101604.41;;;8.22;100.00
20909;BME280;10614;53.198;6.570;2023-04-29T03:06:05;101607.00;;;8.24;100.00
20909;BME280;10614;53.198;6.570;2023-04-29T03:08:06;101610.47;;;8.26;100.00
20909;BME280;10614;53.198;6.570;2023-04-29T03:10:09;101606.13;;;8.25;100.00
20909;BME280;10614;53.198;6.570;2023-04-29T03:12:11;101607.00;;;8.24;100.00
20909;BME280;10614;53.198;6.570;2023-04-29T03:14:12;101618.31;;;8.28;100.00
20909;BME280;10614;53.198;6.570;2023-04-29T03:16:14;101614.84;;;8.27;100.00
20909;BME280;10614;53.198;6.570;2023-04-29T03:18:17;101612.16;;;8.29;100.00
20909;BME280;10614;53.198;6.570;2023-04-29T03:20:19;101616.53;;;8.30;100.00
20909;BME280;10614;53.198;6.570;2023-04-29T03:22:20;101612.13;;;8.32;100.00
20909;BME280;10614;53.198;6.570;2023-04-29T03:24:22;101620.84;;;8.34;100.00
20909;BME280;10614;53.198;6.570;2023-04-29T03:26:23;101623.41;;;8.35;100.00
20909;BME280;10614;53.198;6.570;2023-04-29T03:28:25;101627.81;;;8.35;100.00
20909;BME280;10614;53.198;6.570;2023-04-29T03:30:26;101633.91;;;8.35;100.00
20909;BME280;10614;53.198;6.570;2023-04-29T03:32:28;101627.81;;;8.35;100.00
20909;BME280;10614;53.198;6.570;2023-04-29T03:34:30;101632.16;;;8.36;100.00
20909;BME280;10614;53.198;6.570;2023-04-29T03:36:32;101632.16;;;8.36;100.00
20909;BME280;10614;53.198;6.570;2023-04-29T03:38:33;101631.25;;;8.37;100.00
20909;BME280;10614;53.198;6.570;2023-04-29T03:40:35;101630.41;;;8.36;100.00
20909;BME280;10614;53.198;6.570;2023-04-29T03:42:36;101636.53;;;8.35;100.00
20909;BME280;10614;53.198;6.570;2023-04-29T03:44:38;101633.88;;;8.37;100.00
20909;BME280;10614;53.198;6.570;2023-04-29T03:46:39;101637.44;;;8.34;100.00
20909;BME280;10614;53.198;6.570;2023-04-29T03:48:41;101635.69;;;8.33;100.00
20909;BME280;10614;53.198;6.570;2023-04-29T03:50:44;101642.69;;;8.34;100.00
20909;BME280;10614;53.198;6.570;2023-04-29T03:52:45;101633.09;;;8.32;100.00
20909;BME280;10614;53.198;6.570;2023-04-29T03:54:47;101643.59;;;8.32;100.00
20909;BME280;10614;53.198;6.570;2023-04-29T03:56:49;101648.88;;;8.30;100.00
20909;BME280;10614;53.198;6.570;2023-04-29T03:58:50;101655.81;;;8.33;100.00
20909;BME280;10614;53.198;6.570;2023-04-29T04:00:52;101654.94;;;8.32;100.00
20909;BME280;10614;53.198;6.570;2023-04-29T04:02:53;101655.84;;;8.31;100.00
20909;BME280;10614;53.198;6.570;2023-04-29T04:04:55;101665.44;;;8.32;100.00
20909;BME280;10614;53.198;6.570;2023-04-29T04:06:59;101667.16;;;8.33;100.00
20909;BME280;10614;53.198;6.570;2023-04-29T04:09:00;101664.53;;;8.33;100.00
20909;BME280;10614;53.198;6.570;2023-04-29T04:11:02;101660.13;;;8.35;100.00
20909;BME280;10614;53.198;6.570;2023-04-29T04:13:04;101673.25;;;8.37;100.00
20909;BME280;10614;53.198;6.570;2023-04-29T04:15:05;101672.34;;;8.38;100.00
20909;BME280;10614;53.198;6.570;2023-04-29T04:17:07;101674.09;;;8.37;100.00
20909;BME280;10614;53.198;6.570;2023-04-29T04:19:08;101679.34;;;8.37;100.00
20909;BME280;10614;53.198;6.570;2023-04-29T04:21:10;101684.59;;;8.37;100.00
20909;BME280;10614;53.198;6.570;2023-04-29T04:23:14;101683.72;;;8.37;100.00
20909;BME280;10614;53.198;6.570;2023-04-29T04:25:15;101694.22;;;8.37;100.00
20909;BME280;10614;53.198;6.570;2023-04-29T04:27:17;101702.09;;;8.37;100.00
20909;BME280;10614;53.198;6.570;2023-04-29T04:29:19;101703.81;;;8.38;100.00
20909;BME280;10614;53.198;6.570;2023-04-29T04:31:21;101702.94;;;8.37;100.00
20909;BME280;10614;53.198;6.570;2023-04-29T04:33:23;101710.88;;;8.36;100.00
20909;BME280;10614;53.198;6.570;2023-04-29T04:35:25;101711.75;;;8.35;100.00
20909;BME280;10614;53.198;6.570;2023-04-29T04:37:26;101714.38;;;8.35;100.00
20909;BME280;10614;53.198;6.570;2023-04-29T04:39:29;101712.59;;;8.35;100.00
20909;BME280;10614;53.198;6.570;2023-04-29T04:41:30;101726.63;;;8.36;100.00
20909;BME280;10614;53.198;6.570;2023-04-29T04:43:32;101724.00;;;8.36;100.00
20909;BME280;10614;53.198;6.570;2023-04-29T04:45:34;101729.25;;;8.34;100.00
20909;BME280;10614;53.198;6.570;2023-04-29T04:47:35;101727.47;;;8.36;100.00
20909;BME280;10614;53.198;6.570;2023-04-29T04:49:37;101730.97;;;8.35;100.00
20909;BME280;10614;53.198;6.570;2023-04-29T04:51:38;101730.09;;;8.36;100.00
20909;BME280;10614;53.198;6.570;2023-04-29T04:53:40;101737.09;;;8.36;100.00
20909;BME280;10614;53.198;6.570;2023-04-29T04:55:43;101744.09;;;8.35;100.00
20909;BME280;10614;53.198;6.570;2023-04-29T04:57:44;101741.47;;;8.35;100.00
20909;BME280;10614;53.198;6.570;2023-04-29T04:59:46;101744.97;;;8.36;100.00
20909;BME280;10614;53.198;6.570;2023-04-29T05:01:47;101739.72;;;8.36;100.00
20909;BME280;10614;53.198;6.570;2023-04-29T05:03:49;101749.31;;;8.37;100.00
20909;BME280;10614;53.198;6.570;2023-04-29T05:05:54;101753.66;;;8.38;100.00
20909;BME280;10614;53.198;6.570;2023-04-29T05:07:55;101759.78;;;8.38;100.00
20909;BME280;10614;53.198;6.570;2023-04-29T05:09:57;101758.91;;;8.38;100.00
20909;BME280;10614;53.198;6.570;2023-04-29T05:12:00;101748.41;;;8.38;100.00
20909;BME280;10614;53.198;6.570;2023-04-29T05:14:01;101758.91;;;8.38;100.00
20909;BME280;10614;53.198;6.570;2023-04-29T05:16:03;101762.41;;;8.38;100.00
20909;BME280;10614;53.198;6.570;2023-04-29T05:18:05;101765.91;;;8.39;100.00
20909;BME280;10614;53.198;6.570;2023-04-29T05:20:07;101757.16;;;8.38;100.00
20909;BME280;10614;53.198;6.570;2023-04-29T05:22:09;101760.66;;;8.39;100.00
20909;BME280;10614;53.198;6.570;2023-04-29T05:24:10;101765.88;;;8.40;100.00
20909;BME280;10614;53.198;6.570;2023-04-29T05:26:12;101771.13;;;8.42;100.00
20909;BME280;10614;53.198;6.570;2023-04-29T05:28:14;101763.25;;;8.42;100.00
20909;BME280;10614;53.198;6.570;2023-04-29T05:30:16;101765.00;;;8.41;100.00
20909;BME280;10614;53.198;6.570;2023-04-29T05:32:18;101768.50;;;8.42;100.00
20909;BME280;10614;53.198;6.570;2023-04-29T05:34:19;101765.88;;;8.42;100.00
20909;BME280;10614;53.198;6.570;2023-04-29T05:36:21;101768.50;;;8.43;100.00
20909;BME280;10614;53.198;6.570;2023-04-29T05:38:22;101773.72;;;8.43;100.00
20909;BME280;10614;53.198;6.570;2023-04-29T05:40:28;101778.06;;;8.44;100.00
20909;BME280;10614;53.198;6.570;2023-04-29T05:42:29;101781.53;;;8.47;100.00
20909;BME280;10614;53.198;6.570;2023-04-29T05:44:32;101787.66;;;8.47;100.00
20909;BME280;10614;53.198;6.570;2023-04-29T05:46:34;101781.47;;;8.50;100.00
20909;BME280;10614;53.198;6.570;2023-04-29T05:48:36;101780.59;;;8.51;100.00
20909;BME280;10614;53.198;6.570;2023-04-29T05:50:37;101783.22;;;8.52;100.00
20909;BME280;10614;53.198;6.570;2023-04-29T05:52:39;101784.09;;;8.51;100.00
20909;BME280;10614;53.198;6.570;2023-04-29T05:54:41;101786.66;;;8.54;100.00
20909;BME280;10614;53.198;6.570;2023-04-29T05:56:42;101792.75;;;8.56;100.00
20909;BME280;10614;53.198;6.570;2023-04-29T05:58:44;101799.72;;;8.59;100.00
20909;BME280;10614;53.198;6.570;2023-04-29T06:00:47;101801.47;;;8.60;100.00
20909;BME280;10614;53.198;6.570;2023-04-29T06:02:49;101808.44;;;8.61;100.00
20909;BME280;10614;53.198;6.570;2023-04-29T06:04:51;101807.50;;;8.63;100.00
20909;BME280;10614;53.198;6.570;2023-04-29T06:06:52;101805.72;;;8.65;100.00
20909;BME280;10614;53.198;6.570;2023-04-29T06:11:17;101818.81;;;8.69;100.00
20909;BME280;10614;53.198;6.570;2023-04-29T06:13:19;101826.69;;;8.69;100.00
20909;BME280;10614;53.198;6.570;2023-04-29T06:15:20;101826.69;;;8.69;100.00
20909;BME280;10614;53.198;6.570;2023-04-29T06:17:23;101833.66;;;8.70;100.00
20909;BME280;10614;53.198;6.570;2023-04-29T06:19:28;101831.06;;;8.68;100.00
20909;BME280;10614;53.198;6.570;2023-04-29T06:21:31;101826.72;;;8.67;100.00
20909;BME280;10614;53.198;6.570;2023-04-29T06:23:33;101838.06;;;8.68;100.00
20909;BME280;10614;53.198;6.570;2023-04-29T06:25:34;101831.97;;;8.67;100.00
20909;BME280;10614;53.198;6.570;2023-04-29T06:27:36;101843.34;;;8.66;100.00
20909;BME280;10614;53.198;6.570;2023-04-29T06:29:40;101845.09;;;8.67;100.00
20909;BME280;10614;53.198;6.570;2023-04-29T06:31:42;101840.72;;;8.66;100.00
20909;BME280;10614;53.198;6.570;2023-04-29T06:33:45;101852.09;;;8.66;100.00
20909;BME280;10614;53.198;6.570;2023-04-29T06:35:47;101846.84;;;8.66;100.00
20909;BME280;10614;53.198;6.570;2023-04-29T06:37:49;101845.06;;;8.69;100.00
20909;BME280;10614;53.198;6.570;2023-04-29T06:39:51;101855.53;;;8.70;100.00
20909;BME280;10614;53.198;6.570;2023-04-29T06:41:53;101851.97;;;8.74;100.00
20909;BME280;10614;53.198;6.570;2023-04-29T06:43:55;101853.69;;;8.75;100.00
20909;BME280;10614;53.198;6.570;2023-04-29T06:45:57;101858.00;;;8.78;100.00
20909;BME280;10614;53.198;6.570;2023-04-29T06:47:59;101855.38;;;8.79;100.00
20909;BME280;10614;53.198;6.570;2023-04-29T06:50:02;101857.13;;;8.80;100.00
20909;BME280;10614;53.198;6.570;2023-04-29T06:52:04;101861.47;;;8.81;100.00
20909;BME280;10614;53.198;6.570;2023-04-29T06:54:05;101866.72;;;8.83;100.00
20909;BME280;10614;53.198;6.570;2023-04-29T06:56:07;101865.78;;;8.85;100.00
20909;BME280;10614;53.198;6.570;2023-04-29T06:58:08;101876.22;;;8.88;100.00
20909;BME280;10614;53.198;6.570;2023-04-29T07:00:10;101877.06;;;8.92;100.00
20909;BME280;10614;53.198;6.570;2023-04-29T07:02:12;101877.84;;;8.97;100.00
20909;BME280;10614;53.198;6.570;2023-04-29T07:04:13;101872.53;;;9.00;100.00
20909;BME280;10614;53.198;6.570;2023-04-29T07:06:16;101893.53;;;9.02;100.00
20909;BME280;10614;53.198;6.570;2023-04-29T07:08:18;101898.72;;;9.03;100.00
20909;BME280;10614;53.198;6.570;2023-04-29T07:10:20;101896.94;;;9.05;100.00
20909;BME280;10614;53.198;6.570;2023-04-29T07:12:21;101893.41;;;9.08;100.00
20909;BME280;10614;53.198;6.570;2023-04-29T07:14:23;101899.50;;;9.12;100.00
20909;BME280;10614;53.198;6.570;2023-04-29T07:16:24;101911.72;;;9.13;100.00
20909;BME280;10614;53.198;6.570;2023-04-29T07:18:27;101916.94;;;9.16;100.00
20909;BME280;10614;53.198;6.570;2023-04-29T07:20:28;101916.88;;;9.19;100.00
20909;BME280;10614;53.198;6.570;2023-04-29T07:22:32;101923.78;;;9.24;100.00
20909;BME280;10614;53.198;6.570;2023-04-29T07:24:33;101916.78;;;9.25;100.00
20909;BME280;10614;53.198;6.570;2023-04-29T07:26:35;101922.03;;;9.25;100.00
20909;BME280;10614;53.198;6.570;2023-04-29T07:28:36;101921.97;;;9.28;100.00
20909;BME280;10614;53.198;6.570;2023-04-29T07:30:38;101916.72;;;9.29;100.00
20909;BME280;10614;53.198;6.570;2023-04-29T07:32:39;101910.63;;;9.26;100.00
20909;BME280;10614;53.198;6.570;2023-04-29T07:34:41;101920.13;;;9.33;100.00
20909;BME280;10614;53.198;6.570;2023-04-29T07:36:43;101918.34;;;9.37;100.00
20909;BME280;10614;53.198;6.570;2023-04-29T07:38:46;101918.28;;;9.38;100.00
20909;BME280;10614;53.198;6.570;2023-04-29T07:40:47;101922.69;;;9.38;100.00
20909;BME280;10614;53.198;6.570;2023-04-29T07:42:49;101922.75;;;9.35;100.00
20909;BME280;10614;53.198;6.570;2023-04-29T07:44:50;101938.31;;;9.45;100.00
20909;BME280;10614;53.198;6.570;2023-04-29T07:46:52;101932.09;;;9.49;100.00
20909;BME280;10614;53.198;6.570;2023-04-29T07:48:54;101929.47;;;9.51;100.00
20909;BME280;10614;53.198;6.570;2023-04-29T07:50:55;101930.31;;;9.53;100.00
20909;BME280;10614;53.198;6.570;2023-04-29T07:52:57;101932.03;;;9.52;100.00
20909;BME280;10614;53.198;6.570;2023-04-29T07:55:02;101935.56;;;9.51;100.00
20909;BME280;10614;53.198;6.570;2023-04-29T07:57:04;101945.06;;;9.60;100.00
20909;BME280;10614;53.198;6.570;2023-04-29T07:59:05;101948.47;;;9.64;100.00
20909;BME280;10614;53.198;6.570;2023-04-29T08:01:07;101945.78;;;9.68;100.00
20909;BME280;10614;53.198;6.570;2023-04-29T08:03:09;101958.91;;;9.70;100.00
20909;BME280;10614;53.198;6.570;2023-04-29T08:05:11;101947.47;;;9.72;100.00
20909;BME280;10614;53.198;6.570;2023-04-29T08:07:13;101960.53;;;9.76;100.00
20909;BME280;10614;53.198;6.570;2023-04-29T08:09:14;101962.25;;;9.78;100.00
20909;BME280;10614;53.198;6.570;2023-04-29T08:11:18;101953.50;;;9.78;100.00
20909;BME280;10614;53.198;6.570;2023-04-29T08:13:21;101968.34;;;9.80;100.00
20909;BME280;10614;53.198;6.570;2023-04-29T08:15:22;101962.13;;;9.84;100.00
20909;BME280;10614;53.198;6.570;2023-04-29T08:17:24;101962.13;;;9.84;100.00
20909;BME280;10614;53.198;6.570;2023-04-29T08:19:26;101967.31;;;9.87;100.00
20909;BME280;10614;53.198;6.570;2023-04-29T08:21:28;101969.91;;;9.90;100.00
20909;BME280;10614;53.198;6.570;2023-04-29T08:23:31;101976.03;;;9.91;100.00
20909;BME280;10614;53.198;6.570;2023-04-29T08:25:33;101983.03;;;9.92;100.00
20909;BME280;10614;53.198;6.570;2023-04-29T08:27:36;101980.34;;;9.95;100.00
20909;BME280;10614;53.198;6.570;2023-04-29T08:29:38;101974.19;;;9.96;100.00
20909;BME280;10614;53.198;6.570;2023-04-29T08:31:39;101982.91;;;9.98;100.00
20909;BME280;10614;53.198;6.570;2023-04-29T08:33:41;101978.44;;;10.02;100.00
20909;BME280;10614;53.198;6.570;2023-04-29T08:35:42;101981.97;;;10.01;100.00
20909;BME280;10614;53.198;6.570;2023-04-29T08:37:44;101994.13;;;10.08;100.00
20909;BME280;10614;53.198;6.570;2023-04-29T08:39:46;101994.94;;;10.11;100.00
20909;BME280;10614;53.198;6.570;2023-04-29T08:41:48;102007.06;;;10.19;100.00
20909;BME280;10614;53.198;6.570;2023-04-29T08:43:52;102005.25;;;10.21;100.00
20909;BME280;10614;53.198;6.570;2023-04-29T08:45:54;102005.25;;;10.21;100.00
20909;BME280;10614;53.198;6.570;2023-04-29T08:47:55;102007.88;;;10.21;100.00
20909;BME280;10614;53.198;6.570;2023-04-29T08:49:57;102007.00;;;10.23;100.00
20909;BME280;10614;53.198;6.570;2023-04-29T08:52:02;102018.31;;;10.27;100.00
20909;BME280;10614;53.198;6.570;2023-04-29T08:54:03;102018.31;;;10.28;100.00
20909;BME280;10614;53.198;6.570;2023-04-29T08:56:07;102007.72;;;10.31;100.00
20909;BME280;10614;53.198;6.570;2023-04-29T08:58:09;102022.63;;;10.32;100.00
20909;BME280;10614;53.198;6.570;2023-04-29T09:00:13;102034.00;;;10.33;100.00
20909;BME280;10614;53.198;6.570;2023-04-29T09:02:14;102019.94;;;10.34;100.00
20909;BME280;10614;53.198;6.570;2023-04-29T09:04:21;102024.34;;;10.33;100.00
20909;BME280;10614;53.198;6.570;2023-04-29T09:06:30;102032.13;;;10.40;100.00
20909;BME280;10614;53.198;6.570;2023-04-29T09:08:32;102036.47;;;10.42;99.56
20909;BME280;10614;53.198;6.570;2023-04-29T09:10:34;102042.50;;;10.46;98.08
20909;BME280;10614;53.198;6.570;2023-04-29T09:12:36;102041.59;;;10.48;97.53
20909;BME280;10614;53.198;6.570;2023-04-29T09:14:38;102045.91;;;10.52;96.04
20909;BME280;10614;53.198;6.570;2023-04-29T09:16:41;102051.16;;;10.52;91.04
20909;BME280;10614;53.198;6.570;2023-04-29T09:18:44;102051.00;;;10.60;89.55
20909;BME280;10614;53.198;6.570;2023-04-29T09:20:45;102049.19;;;10.62;87.88
20909;BME280;10614;53.198;6.570;2023-04-29T09:22:47;102049.25;;;10.61;88.83
20909;BME280;10614;53.198;6.570;2023-04-29T09:24:49;102050.06;;;10.63;88.37
20909;BME280;10614;53.198;6.570;2023-04-29T09:26:50;102045.63;;;10.65;89.45
20909;BME280;10614;53.198;6.570;2023-04-29T09:29:09;102049.09;;;10.68;89.46
20909;BME280;10614;53.198;6.570;2023-04-29T09:31:13;102047.22;;;10.72;91.17
20909;BME280;10614;53.198;6.570;2023-04-29T09:33:15;102040.25;;;10.71;91.12
20909;BME280;10614;53.198;6.570;2023-04-29T09:35:20;102058.59;;;10.74;91.79
20909;BME280;10614;53.198;6.570;2023-04-29T09:37:23;102045.41;;;10.77;91.06
20909;BME280;10614;53.198;6.570;2023-04-29T09:39:25;102054.06;;;10.82;89.48
20909;BME280;10614;53.198;6.570;2023-04-29T09:41:26;102057.56;;;10.83;87.19
20909;BME280;10614;53.198;6.570;2023-04-29T09:43:28;102056.59;;;10.87;87.29
20909;BME280;10614;53.198;6.570;2023-04-29T09:45:32;102053.03;;;10.89;84.43
20909;BME280;10614;53.198;6.570;2023-04-29T09:47:35;102071.47;;;10.89;84.59
20909;BME280;10614;53.198;6.570;2023-04-29T09:49:38;102058.28;;;10.89;82.42
20909;BME280;10614;53.198;6.570;2023-04-29T09:51:47;102050.38;;;10.89;84.00
20909;BME280;10614;53.198;6.570;2023-04-29T09:53:52;102059.13;;;10.91;84.16
20909;BME280;10614;53.198;6.570;2023-04-29T09:56:00;102058.22;;;10.91;85.49
20909;BME280;10614;53.198;6.570;2023-04-29T09:58:02;102059.06;;;10.93;86.71
20909;BME280;10614;53.198;6.570;2023-04-29T10:00:04;102059.06;;;10.94;85.73
20909;BME280;10614;53.198;6.570;2023-04-29T10:02:09;102077.41;;;10.99;86.22
20909;BME280;10614;53.198;6.570;2023-04-29T10:04:14;102073.81;;;11.02;89.82
20909;BME280;10614;53.198;6.570;2023-04-29T10:06:16;102072.91;;;11.03;89.49
20909;BME280;10614;53.198;6.570;2023-04-29T10:08:18;102068.56;;;11.02;90.43
20909;BME280;10614;53.198;6.570;2023-04-29T10:10:19;102066.84;;;11.01;90.80
20909;BME280;10614;53.198;6.570;2023-04-29T10:12:21;102067.63;;;11.03;90.08
20909;BME280;10614;53.198;6.570;2023-04-29T10:14:25;102068.47;;;11.05;88.88
20909;BME280;10614;53.198;6.570;2023-04-29T10:16:28;102069.41;;;11.02;87.19
20909;BME280;10614;53.198;6.570;2023-04-29T10:18:35;102066.78;;;11.02;86.28
20909;BME280;10614;53.198;6.570;2023-04-29T10:20:37;102072.97;;;10.99;84.69
20909;BME280;10614;53.198;6.570;2023-04-29T10:22:43;102085.19;;;11.04;85.26
20909;BME280;10614;53.198;6.570;2023-04-29T10:24:45;102068.53;;;11.03;84.27
20909;BME280;10614;53.198;6.570;2023-04-29T10:26:49;102080.78;;;11.04;85.57
20909;BME280;10614;53.198;6.570;2023-04-29T10:28:51;102076.28;;;11.09;82.79
20909;BME280;10614;53.198;6.570;2023-04-29T10:30:55;102074.47;;;11.11;83.92
20909;BME280;10614;53.198;6.570;2023-04-29T10:32:58;102068.28;;;11.14;83.97
20909;BME280;10614;53.198;6.570;2023-04-29T10:35:04;102072.59;;;11.16;84.63
20909;BME280;10614;53.198;6.570;2023-04-29T10:37:07;102066.38;;;11.20;85.42
20909;BME280;10614;53.198;6.570;2023-04-29T10:39:11;102061.13;;;11.19;84.11
20909;BME280;10614;53.198;6.570;2023-04-29T10:41:18;102068.13;;;11.22;85.07
20909;BME280;10614;53.198;6.570;2023-04-29T10:43:21;102072.38;;;11.26;83.85